KPIM/PIM METAR and TAF weather

Enter ICAO airport designator
Station Type Date Time Source
KPIM METAR 2020/09/19 04:35 UTC NOAA

KPIM 190435Z AUTO 02004KT 10SM CLR 21/18 A3005 RMK AO2 T02100176


Station Type Date Time Source
KPIM Decoded METAR 2020/09/19 04:35 UTC NOAA

Station name not available
Sep 19, 2020 - 12:35 AM EDT / 2020.09.19 0435 UTC
Wind: from the NNE (020 degrees) at 5 MPH (4 KT):0
Visibility: 10 mile(s):0
Sky conditions: clear
Temperature: 69.8 F (21.0 C)
Dew Point: 63.7 F (17.6 C)
Relative Humidity: 80%
Pressure (altimeter): 30.05 in. Hg (1017 hPa)
ob: KPIM 190435Z AUTO 02004KT 10SM CLR 21/18 A3005 RMK AO2 T02100176
cycle: 4

Station Type Date Time Source
KPIM TAF UTC NOAA

Error!

Example: see airport list